Rechercher aéroport 
image banner adimage banner adimage banner ad
image banner ad

KWVI - Watsonville Muni

Situé à Watsonville, United States

ICAO - WVI, IATA - WVI

Données fournies par Airmate  

Information générale

Coordonnées: N36°56'9" W121°47'23"
Élévation : 163 feet MSL.
Variation magnétique : 14° East
Voir autres Aéroports à California

Données opérationnelles

Special qualification required
Heure actuelle UTC:
Heure actuelle locale:
Météo
METAR: KWVI 251153Z AUTO 00000KT 9SM OVC004 13/12 A2999 RMK AO2 SLP154 T01330122 10139 20128 53000
Voir NOTAMs / SUP AIP / TFR affectant cet aéroport [VIEW]
Fréquences de communication: [VIEW]

Pistes:

Identifiant RWYQFULongueur (ft)Largeur (ft)SurfaceLDA (ft)
0232°4501149ASPH
20212°4501149ASPH
0999°399898ASPH
27279°399898ASPH

Coordonnées de l'aéroport

Adresse: Watsonville United States

Autres services d'aviation

Écoles de pilotage

Strawberry Aviation, Inc.

Strawberry Aviation, Inc.
flysai@gmail.com+1(831)722-1126

Santa Cruz Flying Club

Santa Cruz Flying Club
info@scfc.org+1(831)722-4580

Ocean Air Flight Services, Inc.

Ocean Air Flight Services, Inc.

United Flight Services

United Flight Services
info@united-flight.com+1(831)722-4155

Specialized Helicopters, Llc

Specialized Helicopters, Llc
main@spheli.com+1(831)763-2244

Vue satellite de KWVI